< < Back
Terminal Aerodrome Forecast


Current Version              Previous Versions:   1  2  3  4  5  6  7  8  9  

Terminal Aerodrome Forecast

449
FTUS44 KBMX 242344 RRA
TAFBHM
TAF
KBHM 242344Z 2500/2524 15010G18KT 5SM SHRA VCTS SCT035 BKN060CB
     FM250100 13007KT P6SM BKN060
     FM250900 14010KT P6SM OVC015
      TEMPO 2511/2515 4SM BR OVC007
     FM251800 15007KT 5SM SHRA VCTS SCT025 BKN040CB=



Latest METAR

434
SAUS70 KWBC 250900 RRA
MTRBHM
METAR KBHM 250853Z 14008G18KT 10SM FEW070 22/16 A3017 RMK AO2 SLP208
T02220161 53002 $


USA.gov is the U.S. government's official web portal to all federal, state and local government web resources and services.